sensor_id;sensor_type;location;lat;lon;timestamp;P1;durP1;ratioP1;P2;durP2;ratioP2
58512;SDS011;44302;47.914;10.642;2022-07-23T00:01:28;8.87;;;7.97;;
58512;SDS011;44302;47.914;10.642;2022-07-23T00:03:55;13.93;;;7.73;;
58512;SDS011;44302;47.914;10.642;2022-07-23T00:06:21;8.57;;;7.70;;
58512;SDS011;44302;47.914;10.642;2022-07-23T00:08:47;9.80;;;8.30;;
58512;SDS011;44302;47.914;10.642;2022-07-23T00:11:13;11.03;;;8.43;;
58512;SDS011;44302;47.914;10.642;2022-07-23T00:13:39;9.67;;;7.53;;
58512;SDS011;44302;47.914;10.642;2022-07-23T00:16:04;9.23;;;7.70;;
58512;SDS011;44302;47.914;10.642;2022-07-23T00:18:30;8.60;;;7.77;;
58512;SDS011;44302;47.914;10.642;2022-07-23T00:20:56;18.17;;;6.70;;
58512;SDS011;44302;47.914;10.642;2022-07-23T00:23:22;18.73;;;6.00;;
58512;SDS011;44302;47.914;10.642;2022-07-23T00:25:49;18.37;;;7.87;;
58512;SDS011;44302;47.914;10.642;2022-07-23T00:28:16;8.77;;;6.07;;
58512;SDS011;44302;47.914;10.642;2022-07-23T00:30:43;8.87;;;5.47;;
58512;SDS011;44302;47.914;10.642;2022-07-23T00:33:09;9.57;;;5.27;;
58512;SDS011;44302;47.914;10.642;2022-07-23T00:35:36;11.00;;;6.30;;
58512;SDS011;44302;47.914;10.642;2022-07-23T00:38:05;15.47;;;6.30;;
58512;SDS011;44302;47.914;10.642;2022-07-23T00:40:32;11.30;;;6.30;;
58512;SDS011;44302;47.914;10.642;2022-07-23T00:42:58;11.23;;;7.00;;
58512;SDS011;44302;47.914;10.642;2022-07-23T00:45:24;9.87;;;6.67;;
58512;SDS011;44302;47.914;10.642;2022-07-23T00:47:50;8.67;;;5.87;;
58512;SDS011;44302;47.914;10.642;2022-07-23T00:50:16;8.27;;;7.07;;
58512;SDS011;44302;47.914;10.642;2022-07-23T00:52:42;10.17;;;6.67;;
58512;SDS011;44302;47.914;10.642;2022-07-23T00:55:09;10.93;;;7.53;;
58512;SDS011;44302;47.914;10.642;2022-07-23T00:57:36;9.13;;;6.67;;
58512;SDS011;44302;47.914;10.642;2022-07-23T01:00:03;12.43;;;7.67;;
58512;SDS011;44302;47.914;10.642;2022-07-23T01:02:31;11.03;;;7.27;;
58512;SDS011;44302;47.914;10.642;2022-07-23T01:04:57;9.20;;;6.53;;
58512;SDS011;44302;47.914;10.642;2022-07-23T01:07:23;9.83;;;7.50;;
58512;SDS011;44302;47.914;10.642;2022-07-23T01:09:49;10.40;;;7.67;;
58512;SDS011;44302;47.914;10.642;2022-07-23T01:12:16;9.90;;;7.73;;
58512;SDS011;44302;47.914;10.642;2022-07-23T01:14:42;9.43;;;7.33;;
58512;SDS011;44302;47.914;10.642;2022-07-23T01:17:08;7.53;;;6.50;;
58512;SDS011;44302;47.914;10.642;2022-07-23T01:19:34;9.80;;;6.83;;
58512;SDS011;44302;47.914;10.642;2022-07-23T01:22:01;8.80;;;6.87;;
58512;SDS011;44302;47.914;10.642;2022-07-23T01:24:28;9.07;;;7.30;;
58512;SDS011;44302;47.914;10.642;2022-07-23T01:26:54;8.60;;;7.23;;
58512;SDS011;44302;47.914;10.642;2022-07-23T01:29:20;7.53;;;6.30;;
58512;SDS011;44302;47.914;10.642;2022-07-23T01:31:46;8.80;;;7.00;;
58512;SDS011;44302;47.914;10.642;2022-07-23T01:34:12;10.43;;;7.23;;
58512;SDS011;44302;47.914;10.642;2022-07-23T01:36:39;9.10;;;7.00;;
58512;SDS011;44302;47.914;10.642;2022-07-23T01:39:05;10.50;;;6.73;;
58512;SDS011;44302;47.914;10.642;2022-07-23T01:41:32;8.63;;;7.00;;
58512;SDS011;44302;47.914;10.642;2022-07-23T01:43:58;8.43;;;7.13;;
58512;SDS011;44302;47.914;10.642;2022-07-23T01:46:24;11.90;;;7.73;;
58512;SDS011;44302;47.914;10.642;2022-07-23T01:48:50;8.60;;;7.27;;
58512;SDS011;44302;47.914;10.642;2022-07-23T01:51:16;11.23;;;7.80;;
58512;SDS011;44302;47.914;10.642;2022-07-23T01:53:42;10.37;;;7.53;;
58512;SDS011;44302;47.914;10.642;2022-07-23T01:56:08;11.43;;;8.10;;
58512;SDS011;44302;47.914;10.642;2022-07-23T01:58:34;12.40;;;7.63;;
58512;SDS011;44302;47.914;10.642;2022-07-23T02:01:00;12.30;;;7.53;;
58512;SDS011;44302;47.914;10.642;2022-07-23T02:03:26;10.00;;;7.50;;
58512;SDS011;44302;47.914;10.642;2022-07-23T02:05:53;8.80;;;7.57;;
58512;SDS011;44302;47.914;10.642;2022-07-23T02:08:19;9.40;;;7.23;;
58512;SDS011;44302;47.914;10.642;2022-07-23T02:10:45;9.77;;;7.33;;
58512;SDS011;44302;47.914;10.642;2022-07-23T02:13:13;8.37;;;7.13;;
58512;SDS011;44302;47.914;10.642;2022-07-23T02:15:39;9.43;;;6.90;;
58512;SDS011;44302;47.914;10.642;2022-07-23T02:18:05;11.03;;;6.63;;
58512;SDS011;44302;47.914;10.642;2022-07-23T02:20:33;9.57;;;6.90;;
58512;SDS011;44302;47.914;10.642;2022-07-23T02:22:59;10.23;;;6.43;;
58512;SDS011;44302;47.914;10.642;2022-07-23T02:25:25;10.50;;;6.77;;
58512;SDS011;44302;47.914;10.642;2022-07-23T02:27:51;8.90;;;7.03;;
58512;SDS011;44302;47.914;10.642;2022-07-23T02:30:16;13.13;;;6.27;;
58512;SDS011;44302;47.914;10.642;2022-07-23T02:32:42;7.53;;;6.80;;
58512;SDS011;44302;47.914;10.642;2022-07-23T02:35:08;10.77;;;7.40;;
58512;SDS011;44302;47.914;10.642;2022-07-23T02:37:34;8.93;;;6.67;;
58512;SDS011;44302;47.914;10.642;2022-07-23T02:40:00;9.57;;;6.70;;
58512;SDS011;44302;47.914;10.642;2022-07-23T02:42:26;9.33;;;6.33;;
58512;SDS011;44302;47.914;10.642;2022-07-23T02:44:52;7.33;;;6.53;;
58512;SDS011;44302;47.914;10.642;2022-07-23T02:47:18;8.53;;;6.80;;
58512;SDS011;44302;47.914;10.642;2022-07-23T02:49:44;8.97;;;7.07;;
58512;SDS011;44302;47.914;10.642;2022-07-23T02:52:11;10.07;;;7.40;;
58512;SDS011;44302;47.914;10.642;2022-07-23T02:54:37;9.00;;;6.80;;
58512;SDS011;44302;47.914;10.642;2022-07-23T02:57:03;10.13;;;6.90;;
58512;SDS011;44302;47.914;10.642;2022-07-23T02:59:29;9.13;;;7.20;;
58512;SDS011;44302;47.914;10.642;2022-07-23T03:01:55;9.17;;;7.10;;
58512;SDS011;44302;47.914;10.642;2022-07-23T03:04:21;7.27;;;6.50;;
58512;SDS011;44302;47.914;10.642;2022-07-23T03:06:47;8.17;;;6.90;;
58512;SDS011;44302;47.914;10.642;2022-07-23T03:09:13;8.53;;;6.27;;
58512;SDS011;44302;47.914;10.642;2022-07-23T03:11:39;9.67;;;7.37;;
58512;SDS011;44302;47.914;10.642;2022-07-23T03:14:05;8.10;;;7.00;;
58512;SDS011;44302;47.914;10.642;2022-07-23T03:16:32;10.63;;;7.60;;
58512;SDS011;44302;47.914;10.642;2022-07-23T03:18:58;14.13;;;7.30;;
58512;SDS011;44302;47.914;10.642;2022-07-23T03:21:24;8.87;;;7.43;;
58512;SDS011;44302;47.914;10.642;2022-07-23T03:23:50;7.77;;;6.90;;
58512;SDS011;44302;47.914;10.642;2022-07-23T03:26:16;8.50;;;7.60;;
58512;SDS011;44302;47.914;10.642;2022-07-23T03:28:42;9.70;;;7.07;;
58512;SDS011;44302;47.914;10.642;2022-07-23T03:31:08;10.00;;;7.83;;
58512;SDS011;44302;47.914;10.642;2022-07-23T03:33:34;9.20;;;8.30;;
58512;SDS011;44302;47.914;10.642;2022-07-23T03:36:00;12.03;;;8.07;;
58512;SDS011;44302;47.914;10.642;2022-07-23T03:38:26;9.20;;;8.20;;
58512;SDS011;44302;47.914;10.642;2022-07-23T03:40:52;9.13;;;8.17;;
58512;SDS011;44302;47.914;10.642;2022-07-23T03:43:17;10.60;;;8.10;;
58512;SDS011;44302;47.914;10.642;2022-07-23T03:45:43;10.47;;;8.70;;
58512;SDS011;44302;47.914;10.642;2022-07-23T03:48:09;14.20;;;8.60;;
58512;SDS011;44302;47.914;10.642;2022-07-23T03:50:35;10.57;;;8.27;;
58512;SDS011;44302;47.914;10.642;2022-07-23T03:53:02;8.93;;;7.70;;
58512;SDS011;44302;47.914;10.642;2022-07-23T03:55:28;9.37;;;8.07;;
58512;SDS011;44302;47.914;10.642;2022-07-23T03:57:54;11.50;;;8.47;;
58512;SDS011;44302;47.914;10.642;2022-07-23T04:00:20;9.90;;;8.60;;
58512;SDS011;44302;47.914;10.642;2022-07-23T04:02:46;9.43;;;8.27;;
58512;SDS011;44302;47.914;10.642;2022-07-23T04:05:12;10.47;;;8.60;;
58512;SDS011;44302;47.914;10.642;2022-07-23T04:07:38;8.93;;;7.90;;
58512;SDS011;44302;47.914;10.642;2022-07-23T04:10:05;8.87;;;7.97;;
58512;SDS011;44302;47.914;10.642;2022-07-23T04:12:31;9.47;;;8.47;;
58512;SDS011;44302;47.914;10.642;2022-07-23T04:14:57;9.70;;;8.13;;
58512;SDS011;44302;47.914;10.642;2022-07-23T04:17:22;10.83;;;8.23;;
58512;SDS011;44302;47.914;10.642;2022-07-23T04:19:48;8.97;;;7.87;;
58512;SDS011;44302;47.914;10.642;2022-07-23T04:22:14;9.57;;;8.57;;
58512;SDS011;44302;47.914;10.642;2022-07-23T04:24:40;11.80;;;8.30;;
58512;SDS011;44302;47.914;10.642;2022-07-23T04:27:06;10.20;;;9.00;;
58512;SDS011;44302;47.914;10.642;2022-07-23T04:29:32;13.03;;;8.23;;
58512;SDS011;44302;47.914;10.642;2022-07-23T04:31:58;9.93;;;8.50;;
58512;SDS011;44302;47.914;10.642;2022-07-23T04:34:24;9.00;;;7.40;;
58512;SDS011;44302;47.914;10.642;2022-07-23T04:36:51;12.50;;;8.80;;
58512;SDS011;44302;47.914;10.642;2022-07-23T04:39:18;10.57;;;8.50;;
58512;SDS011;44302;47.914;10.642;2022-07-23T04:41:43;10.83;;;9.03;;
58512;SDS011;44302;47.914;10.642;2022-07-23T04:44:09;12.50;;;8.67;;
58512;SDS011;44302;47.914;10.642;2022-07-23T04:46:36;11.70;;;8.93;;
58512;SDS011;44302;47.914;10.642;2022-07-23T04:49:02;11.90;;;9.63;;
58512;SDS011;44302;47.914;10.642;2022-07-23T04:51:28;8.80;;;7.73;;
58512;SDS011;44302;47.914;10.642;2022-07-23T04:53:54;12.40;;;8.70;;
58512;SDS011;44302;47.914;10.642;2022-07-23T04:56:20;8.67;;;7.77;;
58512;SDS011;44302;47.914;10.642;2022-07-23T04:58:46;9.37;;;7.97;;
58512;SDS011;44302;47.914;10.642;2022-07-23T05:01:12;8.57;;;7.60;;
58512;SDS011;44302;47.914;10.642;2022-07-23T05:03:38;9.73;;;7.67;;
58512;SDS011;44302;47.914;10.642;2022-07-23T05:06:04;9.37;;;7.47;;
58512;SDS011;44302;47.914;10.642;2022-07-23T05:08:30;8.93;;;7.17;;
58512;SDS011;44302;47.914;10.642;2022-07-23T05:10:56;9.53;;;8.47;;
58512;SDS011;44302;47.914;10.642;2022-07-23T05:13:22;12.27;;;9.10;;
58512;SDS011;44302;47.914;10.642;2022-07-23T05:15:48;9.33;;;8.33;;
58512;SDS011;44302;47.914;10.642;2022-07-23T05:18:14;8.63;;;7.73;;
58512;SDS011;44302;47.914;10.642;2022-07-23T05:20:40;11.23;;;8.47;;
58512;SDS011;44302;47.914;10.642;2022-07-23T05:23:06;9.50;;;7.17;;
58512;SDS011;44302;47.914;10.642;2022-07-23T05:25:32;9.10;;;7.40;;
58512;SDS011;44302;47.914;10.642;2022-07-23T05:27:59;10.70;;;7.80;;
58512;SDS011;44302;47.914;10.642;2022-07-23T05:30:25;9.00;;;6.70;;
58512;SDS011;44302;47.914;10.642;2022-07-23T05:32:51;7.90;;;6.77;;
58512;SDS011;44302;47.914;10.642;2022-07-23T05:35:16;8.20;;;7.33;;
58512;SDS011;44302;47.914;10.642;2022-07-23T05:37:42;8.10;;;6.97;;
58512;SDS011;44302;47.914;10.642;2022-07-23T05:40:08;7.90;;;6.60;;
58512;SDS011;44302;47.914;10.642;2022-07-23T05:42:35;7.63;;;6.73;;
58512;SDS011;44302;47.914;10.642;2022-07-23T05:45:02;8.40;;;6.53;;
58512;SDS011;44302;47.914;10.642;2022-07-23T05:47:29;6.63;;;5.93;;
58512;SDS011;44302;47.914;10.642;2022-07-23T05:50:07;6.47;;;5.77;;
58512;SDS011;44302;47.914;10.642;2022-07-23T05:52:33;7.57;;;6.20;;
58512;SDS011;44302;47.914;10.642;2022-07-23T05:54:59;8.17;;;5.60;;
58512;SDS011;44302;47.914;10.642;2022-07-23T05:57:25;7.97;;;6.53;;
58512;SDS011;44302;47.914;10.642;2022-07-23T05:59:51;6.47;;;5.87;;
58512;SDS011;44302;47.914;10.642;2022-07-23T06:02:17;7.13;;;6.43;;
58512;SDS011;44302;47.914;10.642;2022-07-23T06:04:43;6.57;;;5.97;;
58512;SDS011;44302;47.914;10.642;2022-07-23T06:07:10;7.60;;;6.80;;
58512;SDS011;44302;47.914;10.642;2022-07-23T06:09:36;9.07;;;6.83;;
58512;SDS011;44302;47.914;10.642;2022-07-23T06:12:02;6.43;;;5.83;;
58512;SDS011;44302;47.914;10.642;2022-07-23T06:14:28;8.07;;;6.40;;
58512;SDS011;44302;47.914;10.642;2022-07-23T06:16:54;7.63;;;6.83;;
58512;SDS011;44302;47.914;10.642;2022-07-23T06:19:20;8.20;;;6.40;;
58512;SDS011;44302;47.914;10.642;2022-07-23T06:21:46;7.17;;;6.33;;
58512;SDS011;44302;47.914;10.642;2022-07-23T06:24:13;7.60;;;6.47;;
58512;SDS011;44302;47.914;10.642;2022-07-23T06:26:39;8.90;;;6.73;;
58512;SDS011;44302;47.914;10.642;2022-07-23T06:29:05;9.57;;;6.37;;
58512;SDS011;44302;47.914;10.642;2022-07-23T06:31:31;7.67;;;6.77;;
58512;SDS011;44302;47.914;10.642;2022-07-23T06:33:57;7.37;;;6.33;;
58512;SDS011;44302;47.914;10.642;2022-07-23T06:36:22;9.90;;;6.83;;
58512;SDS011;44302;47.914;10.642;2022-07-23T06:38:48;9.20;;;6.70;;
58512;SDS011;44302;47.914;10.642;2022-07-23T06:41:14;6.63;;;5.90;;
58512;SDS011;44302;47.914;10.642;2022-07-23T06:43:41;7.57;;;6.77;;
58512;SDS011;44302;47.914;10.642;2022-07-23T06:46:07;9.30;;;6.83;;
58512;SDS011;44302;47.914;10.642;2022-07-23T06:48:33;7.33;;;6.30;;
58512;SDS011;44302;47.914;10.642;2022-07-23T06:51:00;7.57;;;6.63;;
58512;SDS011;44302;47.914;10.642;2022-07-23T06:53:26;8.23;;;7.13;;
58512;SDS011;44302;47.914;10.642;2022-07-23T06:55:52;7.40;;;6.63;;
58512;SDS011;44302;47.914;10.642;2022-07-23T06:58:19;7.90;;;6.67;;
58512;SDS011;44302;47.914;10.642;2022-07-23T07:00:45;11.57;;;7.07;;
58512;SDS011;44302;47.914;10.642;2022-07-23T07:03:11;11.20;;;7.10;;
58512;SDS011;44302;47.914;10.642;2022-07-23T07:05:37;8.80;;;7.50;;
58512;SDS011;44302;47.914;10.642;2022-07-23T07:08:04;9.23;;;7.30;;
58512;SDS011;44302;47.914;10.642;2022-07-23T07:10:30;9.73;;;7.60;;
58512;SDS011;44302;47.914;10.642;2022-07-23T07:12:56;9.10;;;7.93;;
58512;SDS011;44302;47.914;10.642;2022-07-23T07:15:23;9.67;;;8.07;;
58512;SDS011;44302;47.914;10.642;2022-07-23T07:17:49;9.80;;;7.43;;
58512;SDS011;44302;47.914;10.642;2022-07-23T07:20:15;9.53;;;8.30;;
58512;SDS011;44302;47.914;10.642;2022-07-23T07:22:41;10.77;;;8.67;;
58512;SDS011;44302;47.914;10.642;2022-07-23T07:25:07;8.90;;;8.00;;
58512;SDS011;44302;47.914;10.642;2022-07-23T07:27:33;10.33;;;7.93;;
58512;SDS011;44302;47.914;10.642;2022-07-23T07:29:59;9.23;;;8.33;;
58512;SDS011;44302;47.914;10.642;2022-07-23T07:32:25;10.70;;;8.53;;
58512;SDS011;44302;47.914;10.642;2022-07-23T07:34:51;10.37;;;8.10;;
58512;SDS011;44302;47.914;10.642;2022-07-23T07:37:17;9.77;;;8.77;;
58512;SDS011;44302;47.914;10.642;2022-07-23T07:39:43;9.00;;;8.10;;
58512;SDS011;44302;47.914;10.642;2022-07-23T07:42:09;8.97;;;7.73;;
58512;SDS011;44302;47.914;10.642;2022-07-23T07:44:35;9.77;;;8.73;;
58512;SDS011;44302;47.914;10.642;2022-07-23T07:47:01;9.93;;;8.23;;
58512;SDS011;44302;47.914;10.642;2022-07-23T07:49:27;9.67;;;8.67;;
58512;SDS011;44302;47.914;10.642;2022-07-23T07:51:53;9.90;;;8.67;;
58512;SDS011;44302;47.914;10.642;2022-07-23T07:54:19;10.70;;;8.97;;
58512;SDS011;44302;47.914;10.642;2022-07-23T07:56:45;10.57;;;8.50;;
58512;SDS011;44302;47.914;10.642;2022-07-23T07:59:11;10.13;;;8.23;;
58512;SDS011;44302;47.914;10.642;2022-07-23T08:01:36;10.17;;;9.03;;
58512;SDS011;44302;47.914;10.642;2022-07-23T08:04:02;11.37;;;9.07;;
58512;SDS011;44302;47.914;10.642;2022-07-23T08:06:28;10.70;;;9.60;;
58512;SDS011;44302;47.914;10.642;2022-07-23T08:08:54;10.33;;;8.87;;
58512;SDS011;44302;47.914;10.642;2022-07-23T08:11:20;11.20;;;9.27;;
58512;SDS011;44302;47.914;10.642;2022-07-23T08:13:46;11.37;;;9.53;;
58512;SDS011;44302;47.914;10.642;2022-07-23T08:16:12;11.07;;;9.80;;
58512;SDS011;44302;47.914;10.642;2022-07-23T08:18:38;10.53;;;9.10;;
58512;SDS011;44302;47.914;10.642;2022-07-23T08:21:04;9.67;;;8.03;;
58512;SDS011;44302;47.914;10.642;2022-07-23T08:23:31;9.30;;;8.03;;
58512;SDS011;44302;47.914;10.642;2022-07-23T08:25:56;9.73;;;8.23;;
58512;SDS011;44302;47.914;10.642;2022-07-23T08:28:24;10.87;;;8.13;;
58512;SDS011;44302;47.914;10.642;2022-07-23T08:30:50;8.33;;;7.30;;
58512;SDS011;44302;47.914;10.642;2022-07-23T08:33:17;8.37;;;7.47;;
58512;SDS011;44302;47.914;10.642;2022-07-23T08:35:44;7.13;;;6.20;;
58512;SDS011;44302;47.914;10.642;2022-07-23T08:38:16;6.80;;;6.10;;
58512;SDS011;44302;47.914;10.642;2022-07-23T08:40:52;6.67;;;5.80;;
58512;SDS011;44302;47.914;10.642;2022-07-23T08:43:23;6.20;;;5.60;;
58512;SDS011;44302;47.914;10.642;2022-07-23T08:45:51;5.50;;;4.47;;
58512;SDS011;44302;47.914;10.642;2022-07-23T08:48:24;5.60;;;5.10;;
58512;SDS011;44302;47.914;10.642;2022-07-23T08:50:52;6.93;;;5.10;;
58512;SDS011;44302;47.914;10.642;2022-07-23T08:53:22;5.90;;;5.27;;
58512;SDS011;44302;47.914;10.642;2022-07-23T08:55:51;5.40;;;4.90;;
58512;SDS011;44302;47.914;10.642;2022-07-23T08:58:19;5.73;;;5.13;;
58512;SDS011;44302;47.914;10.642;2022-07-23T09:00:47;5.60;;;5.00;;
58512;SDS011;44302;47.914;10.642;2022-07-23T09:03:17;7.20;;;5.30;;
58512;SDS011;44302;47.914;10.642;2022-07-23T09:05:44;7.33;;;5.40;;
58512;SDS011;44302;47.914;10.642;2022-07-23T09:10:51;6.97;;;5.70;;
58512;SDS011;44302;47.914;10.642;2022-07-23T09:16:03;6.83;;;5.70;;
58512;SDS011;44302;47.914;10.642;2022-07-23T09:18:37;8.27;;;6.40;;
58512;SDS011;44302;47.914;10.642;2022-07-23T09:21:05;6.83;;;6.07;;
58512;SDS011;44302;47.914;10.642;2022-07-23T09:23:50;6.93;;;6.23;;
58512;SDS011;44302;47.914;10.642;2022-07-23T09:26:19;7.40;;;6.70;;
58512;SDS011;44302;47.914;10.642;2022-07-23T09:28:53;7.50;;;6.80;;
58512;SDS011;44302;47.914;10.642;2022-07-23T09:31:46;7.80;;;7.10;;
58512;SDS011;44302;47.914;10.642;2022-07-23T09:36:47;6.87;;;6.27;;
58512;SDS011;44302;47.914;10.642;2022-07-23T09:39:14;6.30;;;5.70;;
58512;SDS011;44302;47.914;10.642;2022-07-23T09:41:43;8.00;;;6.00;;
58512;SDS011;44302;47.914;10.642;2022-07-23T09:44:14;7.63;;;5.50;;
58512;SDS011;44302;47.914;10.642;2022-07-23T09:46:43;7.10;;;5.53;;
58512;SDS011;44302;47.914;10.642;2022-07-23T09:49:20;5.83;;;5.23;;
58512;SDS011;44302;47.914;10.642;2022-07-23T09:57:12;7.40;;;6.33;;
58512;SDS011;44302;47.914;10.642;2022-07-23T09:59:39;7.33;;;5.37;;
58512;SDS011;44302;47.914;10.642;2022-07-23T10:02:06;5.97;;;5.30;;
58512;SDS011;44302;47.914;10.642;2022-07-23T10:04:33;6.80;;;6.10;;
58512;SDS011;44302;47.914;10.642;2022-07-23T10:07:00;7.33;;;6.00;;
58512;SDS011;44302;47.914;10.642;2022-07-23T10:09:29;5.77;;;5.07;;
58512;SDS011;44302;47.914;10.642;2022-07-23T10:11:58;8.10;;;5.97;;
58512;SDS011;44302;47.914;10.642;2022-07-23T10:14:48;7.47;;;6.07;;
58512;SDS011;44302;47.914;10.642;2022-07-23T10:17:15;6.63;;;5.53;;
58512;SDS011;44302;47.914;10.642;2022-07-23T10:19:41;7.97;;;5.77;;
58512;SDS011;44302;47.914;10.642;2022-07-23T10:22:14;7.87;;;5.90;;
58512;SDS011;44302;47.914;10.642;2022-07-23T10:30:00;6.27;;;5.67;;
58512;SDS011;44302;47.914;10.642;2022-07-23T10:37:49;6.20;;;5.60;;
58512;SDS011;44302;47.914;10.642;2022-07-23T10:40:20;5.67;;;5.10;;
58512;SDS011;44302;47.914;10.642;2022-07-23T10:42:48;6.97;;;5.10;;
58512;SDS011;44302;47.914;10.642;2022-07-23T10:45:27;5.77;;;4.87;;
58512;SDS011;44302;47.914;10.642;2022-07-23T10:47:56;7.70;;;5.27;;
58512;SDS011;44302;47.914;10.642;2022-07-23T10:50:42;8.43;;;5.47;;
58512;SDS011;44302;47.914;10.642;2022-07-23T10:53:13;5.87;;;4.77;;
58512;SDS011;44302;47.914;10.642;2022-07-23T10:55:43;5.90;;;5.30;;
58512;SDS011;44302;47.914;10.642;2022-07-23T10:58:18;6.43;;;5.83;;
58512;SDS011;44302;47.914;10.642;2022-07-23T11:00:45;7.10;;;5.00;;
58512;SDS011;44302;47.914;10.642;2022-07-23T11:03:53;6.13;;;5.53;;
58512;SDS011;44302;47.914;10.642;2022-07-23T11:06:04;6.50;;;5.60;;
58512;SDS011;44302;47.914;10.642;2022-07-23T11:08:30;7.90;;;5.00;;
58512;SDS011;44302;47.914;10.642;2022-07-23T11:11:29;6.00;;;5.40;;
58512;SDS011;44302;47.914;10.642;2022-07-23T11:13:48;6.87;;;5.13;;
58512;SDS011;44302;47.914;10.642;2022-07-23T11:16:15;6.70;;;5.10;;
58512;SDS011;44302;47.914;10.642;2022-07-23T11:31:53;7.50;;;5.00;;
58512;SDS011;44302;47.914;10.642;2022-07-23T11:34:32;6.30;;;5.20;;
58512;SDS011;44302;47.914;10.642;2022-07-23T11:37:07;6.53;;;5.13;;
58512;SDS011;44302;47.914;10.642;2022-07-23T11:39:35;6.03;;;4.77;;
58512;SDS011;44302;47.914;10.642;2022-07-23T11:42:02;5.07;;;4.57;;
58512;SDS011;44302;47.914;10.642;2022-07-23T11:44:33;6.13;;;5.07;;
58512;SDS011;44302;47.914;10.642;2022-07-23T11:47:09;10.50;;;4.60;;
58512;SDS011;44302;47.914;10.642;2022-07-23T11:49:38;4.67;;;4.00;;
58512;SDS011;44302;47.914;10.642;2022-07-23T11:52:13;4.97;;;4.47;;
58512;SDS011;44302;47.914;10.642;2022-07-23T11:54:51;5.60;;;5.00;;
58512;SDS011;44302;47.914;10.642;2022-07-23T11:57:44;5.87;;;4.67;;
58512;SDS011;44302;47.914;10.642;2022-07-23T12:02:51;6.70;;;5.00;;
58512;SDS011;44302;47.914;10.642;2022-07-23T12:05:22;10.33;;;5.10;;
58512;SDS011;44302;47.914;10.642;2022-07-23T12:07:53;13.20;;;5.97;;
58512;SDS011;44302;47.914;10.642;2022-07-23T12:12:58;5.87;;;5.30;;
58512;SDS011;44302;47.914;10.642;2022-07-23T12:15:30;6.80;;;5.07;;
58512;SDS011;44302;47.914;10.642;2022-07-23T12:17:58;6.07;;;5.47;;
58512;SDS011;44302;47.914;10.642;2022-07-23T12:20:26;5.60;;;5.10;;
58512;SDS011;44302;47.914;10.642;2022-07-23T12:22:58;6.00;;;5.43;;
58512;SDS011;44302;47.914;10.642;2022-07-23T12:25:28;7.80;;;5.77;;
58512;SDS011;44302;47.914;10.642;2022-07-23T12:28:01;6.10;;;5.30;;
58512;SDS011;44302;47.914;10.642;2022-07-23T12:33:05;5.87;;;5.30;;
58512;SDS011;44302;47.914;10.642;2022-07-23T12:35:33;8.03;;;5.67;;
58512;SDS011;44302;47.914;10.642;2022-07-23T12:38:10;6.37;;;5.73;;
58512;SDS011;44302;47.914;10.642;2022-07-23T12:40:41;5.73;;;5.23;;
58512;SDS011;44302;47.914;10.642;2022-07-23T12:43:08;5.90;;;5.30;;
58512;SDS011;44302;47.914;10.642;2022-07-23T12:46:10;8.23;;;6.10;;
58512;SDS011;44302;47.914;10.642;2022-07-23T12:51:09;6.67;;;5.97;;
58512;SDS011;44302;47.914;10.642;2022-07-23T12:53:46;7.43;;;6.57;;
58512;SDS011;44302;47.914;10.642;2022-07-23T12:58:50;7.60;;;6.23;;
58512;SDS011;44302;47.914;10.642;2022-07-23T13:04:08;7.23;;;6.07;;
58512;SDS011;44302;47.914;10.642;2022-07-23T13:09:10;5.83;;;5.23;;
58512;SDS011;44302;47.914;10.642;2022-07-23T13:11:38;6.37;;;5.77;;
58512;SDS011;44302;47.914;10.642;2022-07-23T13:14:04;10.27;;;6.43;;
58512;SDS011;44302;47.914;10.642;2022-07-23T13:16:30;6.60;;;5.60;;
58512;SDS011;44302;47.914;10.642;2022-07-23T13:18:57;6.47;;;5.87;;
58512;SDS011;44302;47.914;10.642;2022-07-23T13:21:24;6.67;;;6.07;;
58512;SDS011;44302;47.914;10.642;2022-07-23T13:23:50;8.00;;;5.87;;
58512;SDS011;44302;47.914;10.642;2022-07-23T13:26:16;6.23;;;5.63;;
58512;SDS011;44302;47.914;10.642;2022-07-23T13:28:41;6.83;;;5.73;;
58512;SDS011;44302;47.914;10.642;2022-07-23T13:31:07;8.17;;;6.37;;
58512;SDS011;44302;47.914;10.642;2022-07-23T13:33:33;6.37;;;5.77;;
58512;SDS011;44302;47.914;10.642;2022-07-23T13:35:59;7.20;;;5.80;;
58512;SDS011;44302;47.914;10.642;2022-07-23T13:38:25;7.40;;;6.20;;
58512;SDS011;44302;47.914;10.642;2022-07-23T13:40:51;8.13;;;6.20;;
58512;SDS011;44302;47.914;10.642;2022-07-23T13:43:18;6.87;;;6.17;;
58512;SDS011;44302;47.914;10.642;2022-07-23T13:45:46;8.30;;;6.30;;
58512;SDS011;44302;47.914;10.642;2022-07-23T13:48:12;7.83;;;5.73;;
58512;SDS011;44302;47.914;10.642;2022-07-23T13:50:39;8.00;;;6.03;;
58512;SDS011;44302;47.914;10.642;2022-07-23T13:53:07;6.30;;;5.70;;
58512;SDS011;44302;47.914;10.642;2022-07-23T13:55:35;6.47;;;5.83;;
58512;SDS011;44302;47.914;10.642;2022-07-23T13:58:02;10.93;;;6.50;;
58512;SDS011;44302;47.914;10.642;2022-07-23T14:00:29;7.30;;;6.07;;
58512;SDS011;44302;47.914;10.642;2022-07-23T14:02:56;7.83;;;5.77;;
58512;SDS011;44302;47.914;10.642;2022-07-23T14:05:22;9.37;;;6.70;;
58512;SDS011;44302;47.914;10.642;2022-07-23T14:07:48;8.13;;;6.03;;
58512;SDS011;44302;47.914;10.642;2022-07-23T14:10:17;7.93;;;6.63;;
58512;SDS011;44302;47.914;10.642;2022-07-23T14:12:44;6.53;;;5.90;;
58512;SDS011;44302;47.914;10.642;2022-07-23T14:15:10;6.53;;;5.90;;
58512;SDS011;44302;47.914;10.642;2022-07-23T14:17:37;6.60;;;6.00;;
58512;SDS011;44302;47.914;10.642;2022-07-23T14:20:04;8.50;;;6.10;;
58512;SDS011;44302;47.914;10.642;2022-07-23T14:22:31;9.37;;;6.57;;
58512;SDS011;44302;47.914;10.642;2022-07-23T14:24:57;6.77;;;6.07;;
58512;SDS011;44302;47.914;10.642;2022-07-23T14:27:23;7.47;;;6.07;;
58512;SDS011;44302;47.914;10.642;2022-07-23T14:29:50;6.13;;;5.43;;
58512;SDS011;44302;47.914;10.642;2022-07-23T14:32:16;6.43;;;5.30;;
58512;SDS011;44302;47.914;10.642;2022-07-23T14:34:42;6.40;;;5.90;;
58512;SDS011;44302;47.914;10.642;2022-07-23T14:37:09;7.90;;;5.90;;
58512;SDS011;44302;47.914;10.642;2022-07-23T14:39:36;6.70;;;5.50;;
58512;SDS011;44302;47.914;10.642;2022-07-23T14:42:02;8.10;;;5.50;;
58512;SDS011;44302;47.914;10.642;2022-07-23T14:44:28;6.70;;;5.93;;
58512;SDS011;44302;47.914;10.642;2022-07-23T14:46:54;6.87;;;5.80;;
58512;SDS011;44302;47.914;10.642;2022-07-23T14:49:19;6.30;;;5.73;;
58512;SDS011;44302;47.914;10.642;2022-07-23T14:51:45;12.73;;;5.97;;
58512;SDS011;44302;47.914;10.642;2022-07-23T14:54:11;6.10;;;5.50;;
58512;SDS011;44302;47.914;10.642;2022-07-23T14:56:37;6.70;;;6.03;;
58512;SDS011;44302;47.914;10.642;2022-07-23T14:59:03;6.20;;;5.60;;
58512;SDS011;44302;47.914;10.642;2022-07-23T15:01:29;5.60;;;5.10;;
58512;SDS011;44302;47.914;10.642;2022-07-23T15:03:55;7.67;;;5.73;;
58512;SDS011;44302;47.914;10.642;2022-07-23T15:06:21;6.00;;;5.37;;
58512;SDS011;44302;47.914;10.642;2022-07-23T15:08:46;5.90;;;5.40;;
58512;SDS011;44302;47.914;10.642;2022-07-23T15:11:12;7.53;;;5.90;;
58512;SDS011;44302;47.914;10.642;2022-07-23T15:13:38;7.50;;;5.53;;
58512;SDS011;44302;47.914;10.642;2022-07-23T15:16:04;6.93;;;6.33;;
58512;SDS011;44302;47.914;10.642;2022-07-23T15:18:31;7.27;;;6.47;;
58512;SDS011;44302;47.914;10.642;2022-07-23T15:20:57;6.70;;;6.03;;
58512;SDS011;44302;47.914;10.642;2022-07-23T15:23:23;7.23;;;6.53;;
58512;SDS011;44302;47.914;10.642;2022-07-23T15:25:49;6.70;;;6.10;;
58512;SDS011;44302;47.914;10.642;2022-07-23T15:28:15;7.60;;;6.90;;